sensor_id;sensor_type;location;lat;lon;timestamp;pressure;altitude;pressure_sealevel;temperature;humidity
57900;BME280;60605;53.716;19.940;2023-06-26T00:00:47;100412.03;;;14.70;92.96
57900;BME280;60605;53.716;19.940;2023-06-26T00:06:10;100412.00;;;14.62;93.61
57900;BME280;60605;53.716;19.940;2023-06-26T00:11:12;100410.33;;;14.55;94.24
57900;BME280;60605;53.716;19.940;2023-06-26T00:16:14;100411.23;;;14.49;94.83
57900;BME280;60605;53.716;19.940;2023-06-26T00:21:16;100407.77;;;14.42;95.10
57900;BME280;60605;53.716;19.940;2023-06-26T00:26:18;100406.87;;;14.35;95.57
57900;BME280;60605;53.716;19.940;2023-06-26T00:31:20;100405.38;;;14.30;95.73
57900;BME280;60605;53.716;19.940;2023-06-26T00:36:22;100407.19;;;14.25;96.11
57900;BME280;60605;53.716;19.940;2023-06-26T00:41:25;100403.10;;;14.17;96.47
57900;BME280;60605;53.716;19.940;2023-06-26T00:46:27;100402.95;;;14.09;96.80
57900;BME280;60605;53.716;19.940;2023-06-26T00:51:30;100401.83;;;14.00;97.14
57900;BME280;60605;53.716;19.940;2023-06-26T00:56:32;100395.58;;;13.92;97.90
57900;BME280;60605;53.716;19.940;2023-06-26T01:01:34;100395.45;;;13.82;97.98
57900;BME280;60605;53.716;19.940;2023-06-26T01:06:36;100393.07;;;13.73;98.42
57900;BME280;60605;53.716;19.940;2023-06-26T01:11:38;100391.02;;;13.65;98.93
57900;BME280;60605;53.716;19.940;2023-06-26T01:16:41;100387.42;;;13.59;99.32
57900;BME280;60605;53.716;19.940;2023-06-26T01:21:50;100386.16;;;13.53;99.59
57900;BME280;60605;53.716;19.940;2023-06-26T01:26:53;100379.53;;;13.46;99.99
57900;BME280;60605;53.716;19.940;2023-06-26T01:31:56;100376.24;;;13.40;100.00
57900;BME280;60605;53.716;19.940;2023-06-26T01:36:59;100370.95;;;13.36;100.00
57900;BME280;60605;53.716;19.940;2023-06-26T01:42:01;100366.16;;;13.33;100.00
57900;BME280;60605;53.716;19.940;2023-06-26T01:47:04;100366.73;;;13.29;100.00
57900;BME280;60605;53.716;19.940;2023-06-26T01:57:31;100356.52;;;13.24;100.00
57900;BME280;60605;53.716;19.940;2023-06-26T02:02:35;100352.52;;;13.23;100.00
57900;BME280;60605;53.716;19.940;2023-06-26T02:07:38;100356.60;;;13.22;100.00
57900;BME280;60605;53.716;19.940;2023-06-26T02:12:40;100351.82;;;13.20;100.00
57900;BME280;60605;53.716;19.940;2023-06-26T02:17:42;100352.59;;;13.19;100.00
57900;BME280;60605;53.716;19.940;2023-06-26T02:22:45;100351.58;;;13.20;100.00
57900;BME280;60605;53.716;19.940;2023-06-26T02:27:47;100354.88;;;13.23;100.00
57900;BME280;60605;53.716;19.940;2023-06-26T02:32:49;100352.52;;;13.26;100.00
57900;BME280;60605;53.716;19.940;2023-06-26T02:37:51;100350.47;;;13.29;100.00
57900;BME280;60605;53.716;19.940;2023-06-26T02:42:53;100347.59;;;13.32;100.00
57900;BME280;60605;53.716;19.940;2023-06-26T02:47:55;100347.71;;;13.37;100.00
57900;BME280;60605;53.716;19.940;2023-06-26T02:52:57;100347.92;;;13.43;100.00
57900;BME280;60605;53.716;19.940;2023-06-26T02:57:58;100348.82;;;13.53;100.00
57900;BME280;60605;53.716;19.940;2023-06-26T03:03:01;100351.80;;;13.66;100.00
57900;BME280;60605;53.716;19.940;2023-06-26T03:08:04;100349.02;;;13.81;100.00
57900;BME280;60605;53.716;19.940;2023-06-26T03:13:06;100347.41;;;13.95;100.00
57900;BME280;60605;53.716;19.940;2023-06-26T03:18:08;100347.61;;;14.13;100.00
57900;BME280;60605;53.716;19.940;2023-06-26T03:23:11;100347.35;;;14.37;100.00
57900;BME280;60605;53.716;19.940;2023-06-26T03:28:13;100348.13;;;14.84;100.00
57900;BME280;60605;53.716;19.940;2023-06-26T03:33:15;100349.06;;;15.71;100.00
57900;BME280;60605;53.716;19.940;2023-06-26T03:38:17;100340.63;;;16.58;100.00
57900;BME280;60605;53.716;19.940;2023-06-26T03:43:19;100341.50;;;17.84;99.87
57900;BME280;60605;53.716;19.940;2023-06-26T03:48:20;100345.40;;;19.22;96.44
57900;BME280;60605;53.716;19.940;2023-06-26T03:53:23;100343.46;;;20.50;90.36
57900;BME280;60605;53.716;19.940;2023-06-26T03:58:25;100346.27;;;21.70;84.28
57900;BME280;60605;53.716;19.940;2023-06-26T04:03:27;100348.02;;;22.80;78.97
57900;BME280;60605;53.716;19.940;2023-06-26T04:08:29;100345.60;;;23.74;74.47
57900;BME280;60605;53.716;19.940;2023-06-26T04:13:31;100347.67;;;24.68;71.03
57900;BME280;60605;53.716;19.940;2023-06-26T04:18:33;100353.02;;;25.47;67.39
57900;BME280;60605;53.716;19.940;2023-06-26T04:23:35;100351.59;;;26.12;64.73
57900;BME280;60605;53.716;19.940;2023-06-26T04:28:37;100356.27;;;26.60;61.60
57900;BME280;60605;53.716;19.940;2023-06-26T04:33:39;100358.43;;;27.02;60.19
57900;BME280;60605;53.716;19.940;2023-06-26T04:38:44;100358.00;;;27.61;58.56
57900;BME280;60605;53.716;19.940;2023-06-26T04:43:46;100356.48;;;28.14;56.67
57900;BME280;60605;53.716;19.940;2023-06-26T04:48:48;100359.59;;;28.65;55.46
57900;BME280;60605;53.716;19.940;2023-06-26T04:53:50;100355.16;;;29.27;54.27
57900;BME280;60605;53.716;19.940;2023-06-26T04:58:52;100358.30;;;29.62;52.06
57900;BME280;60605;53.716;19.940;2023-06-26T05:03:54;100361.48;;;29.96;50.74
57900;BME280;60605;53.716;19.940;2023-06-26T05:08:55;100360.90;;;30.39;50.58
57900;BME280;60605;53.716;19.940;2023-06-26T05:13:57;100360.05;;;30.79;48.63
57900;BME280;60605;53.716;19.940;2023-06-26T05:18:59;100356.86;;;31.01;48.58
57900;BME280;60605;53.716;19.940;2023-06-26T05:24:02;100357.63;;;31.62;48.01
57900;BME280;60605;53.716;19.940;2023-06-26T05:29:05;100351.14;;;32.24;45.93
57900;BME280;60605;53.716;19.940;2023-06-26T05:34:07;100342.90;;;32.75;45.68
57900;BME280;60605;53.716;19.940;2023-06-26T05:39:12;100341.34;;;33.54;43.41
57900;BME280;60605;53.716;19.940;2023-06-26T05:44:14;100335.73;;;33.90;41.53
57900;BME280;60605;53.716;19.940;2023-06-26T05:49:16;100333.42;;;33.95;40.47
57900;BME280;60605;53.716;19.940;2023-06-26T05:54:18;100331.04;;;34.05;39.90
57900;BME280;60605;53.716;19.940;2023-06-26T05:59:22;100326.22;;;34.42;40.19
57900;BME280;60605;53.716;19.940;2023-06-26T06:04:24;100326.27;;;35.22;39.20
57900;BME280;60605;53.716;19.940;2023-06-26T06:09:26;100327.35;;;35.89;38.43
57900;BME280;60605;53.716;19.940;2023-06-26T06:14:28;100331.23;;;36.36;38.31
57900;BME280;60605;53.716;19.940;2023-06-26T06:19:30;100323.48;;;36.70;36.30
57900;BME280;60605;53.716;19.940;2023-06-26T06:24:32;100326.12;;;36.46;36.27
57900;BME280;60605;53.716;19.940;2023-06-26T06:29:34;100322.08;;;36.76;36.53
57900;BME280;60605;53.716;19.940;2023-06-26T06:34:36;100324.96;;;37.32;36.53
57900;BME280;60605;53.716;19.940;2023-06-26T06:39:38;100324.85;;;37.92;36.06
57900;BME280;60605;53.716;19.940;2023-06-26T06:44:40;100321.23;;;38.47;34.22
57900;BME280;60605;53.716;19.940;2023-06-26T06:49:42;100319.02;;;38.53;33.12
57900;BME280;60605;53.716;19.940;2023-06-26T06:54:57;100318.09;;;38.79;32.90
57900;BME280;60605;53.716;19.940;2023-06-26T07:00:09;100316.54;;;39.46;31.71
57900;BME280;60605;53.716;19.940;2023-06-26T07:05:12;100322.05;;;40.02;30.69
57900;BME280;60605;53.716;19.940;2023-06-26T07:10:15;100320.02;;;40.15;28.70
57900;BME280;60605;53.716;19.940;2023-06-26T07:15:17;100315.38;;;40.26;28.84
57900;BME280;60605;53.716;19.940;2023-06-26T07:20:19;100314.38;;;40.72;28.66
57900;BME280;60605;53.716;19.940;2023-06-26T07:25:21;100308.75;;;41.40;26.86
57900;BME280;60605;53.716;19.940;2023-06-26T07:30:23;100311.75;;;41.78;26.48
57900;BME280;60605;53.716;19.940;2023-06-26T07:35:26;100310.45;;;42.13;25.83
57900;BME280;60605;53.716;19.940;2023-06-26T07:40:29;100310.95;;;42.55;25.32
57900;BME280;60605;53.716;19.940;2023-06-26T07:45:31;100307.48;;;42.87;25.00
57900;BME280;60605;53.716;19.940;2023-06-26T07:50:33;100303.67;;;43.03;24.41
57900;BME280;60605;53.716;19.940;2023-06-26T07:55:35;100303.14;;;43.39;23.34
57900;BME280;60605;53.716;19.940;2023-06-26T08:00:37;100300.69;;;43.78;21.83
57900;BME280;60605;53.716;19.940;2023-06-26T08:05:40;100297.52;;;43.77;20.80
57900;BME280;60605;53.716;19.940;2023-06-26T08:10:44;100296.28;;;43.84;20.89
57900;BME280;60605;53.716;19.940;2023-06-26T08:15:46;100289.98;;;43.80;20.63
57900;BME280;60605;53.716;19.940;2023-06-26T08:20:48;100289.33;;;44.11;20.96
57900;BME280;60605;53.716;19.940;2023-06-26T08:25:50;100290.05;;;44.37;20.59
57900;BME280;60605;53.716;19.940;2023-06-26T08:30:52;100286.51;;;44.46;20.25
57900;BME280;60605;53.716;19.940;2023-06-26T08:35:54;100278.69;;;44.37;20.47
57900;BME280;60605;53.716;19.940;2023-06-26T08:40:56;100276.97;;;44.37;20.92
57900;BME280;60605;53.716;19.940;2023-06-26T08:45:59;100273.01;;;44.51;20.02
57900;BME280;60605;53.716;19.940;2023-06-26T08:51:09;100270.98;;;44.46;20.41
57900;BME280;60605;53.716;19.940;2023-06-26T08:56:15;100271.96;;;44.37;19.91
57900;BME280;60605;53.716;19.940;2023-06-26T09:01:20;100268.67;;;44.21;18.92
57900;BME280;60605;53.716;19.940;2023-06-26T09:06:22;100264.21;;;43.87;18.93
57900;BME280;60605;53.716;19.940;2023-06-26T09:11:24;100257.16;;;43.78;19.42
57900;BME280;60605;53.716;19.940;2023-06-26T09:16:27;100252.45;;;43.69;18.89
57900;BME280;60605;53.716;19.940;2023-06-26T09:21:30;100247.86;;;43.39;19.55
57900;BME280;60605;53.716;19.940;2023-06-26T09:26:32;100246.34;;;43.46;20.42
57900;BME280;60605;53.716;19.940;2023-06-26T09:31:37;100241.38;;;43.67;20.62
57900;BME280;60605;53.716;19.940;2023-06-26T09:36:44;100241.57;;;43.65;20.50
57900;BME280;60605;53.716;19.940;2023-06-26T09:41:49;100238.45;;;43.62;20.41
57900;BME280;60605;53.716;19.940;2023-06-26T09:46:54;100231.83;;;43.36;20.49
57900;BME280;60605;53.716;19.940;2023-06-26T09:52:00;100226.05;;;43.01;20.70
57900;BME280;60605;53.716;19.940;2023-06-26T09:57:10;100219.65;;;42.56;21.42
57900;BME280;60605;53.716;19.940;2023-06-26T10:02:12;100215.00;;;42.16;22.21
57900;BME280;60605;53.716;19.940;2023-06-26T10:07:15;100208.62;;;41.66;22.37
57900;BME280;60605;53.716;19.940;2023-06-26T10:12:32;100203.41;;;40.43;22.93
57900;BME280;60605;53.716;19.940;2023-06-26T10:17:36;100195.90;;;38.75;24.56
57900;BME280;60605;53.716;19.940;2023-06-26T10:22:44;100186.64;;;37.33;26.55
57900;BME280;60605;53.716;19.940;2023-06-26T10:27:55;100183.25;;;36.13;27.62
57900;BME280;60605;53.716;19.940;2023-06-26T10:32:59;100180.95;;;35.21;28.71
57900;BME280;60605;53.716;19.940;2023-06-26T10:38:03;100174.48;;;34.60;30.16
57900;BME280;60605;53.716;19.940;2023-06-26T10:43:09;100167.73;;;34.05;30.42
57900;BME280;60605;53.716;19.940;2023-06-26T10:48:15;100161.55;;;33.64;30.96
57900;BME280;60605;53.716;19.940;2023-06-26T11:03:45;100148.06;;;32.53;32.59
57900;BME280;60605;53.716;19.940;2023-06-26T11:09:10;100148.98;;;32.44;31.64
57900;BME280;60605;53.716;19.940;2023-06-26T11:14:15;100146.90;;;32.46;33.18
57900;BME280;60605;53.716;19.940;2023-06-26T11:19:19;100140.95;;;32.55;32.71
57900;BME280;60605;53.716;19.940;2023-06-26T11:24:21;100140.16;;;32.55;32.44
57900;BME280;60605;53.716;19.940;2023-06-26T11:29:25;100134.77;;;32.59;31.84
57900;BME280;60605;53.716;19.940;2023-06-26T11:34:29;100128.70;;;32.55;32.35
57900;BME280;60605;53.716;19.940;2023-06-26T11:39:31;100126.78;;;32.66;32.13
57900;BME280;60605;53.716;19.940;2023-06-26T11:44:40;100124.89;;;32.66;32.75
57900;BME280;60605;53.716;19.940;2023-06-26T11:49:47;100117.23;;;32.66;32.32
57900;BME280;60605;53.716;19.940;2023-06-26T11:54:49;100117.88;;;32.63;33.21
57900;BME280;60605;53.716;19.940;2023-06-26T11:59:51;100113.80;;;32.58;32.13
57900;BME280;60605;53.716;19.940;2023-06-26T12:04:53;100110.27;;;32.57;32.55
57900;BME280;60605;53.716;19.940;2023-06-26T12:09:55;100104.64;;;32.55;31.76
57900;BME280;60605;53.716;19.940;2023-06-26T12:14:59;100103.54;;;32.57;32.20
57900;BME280;60605;53.716;19.940;2023-06-26T12:20:03;100096.89;;;32.56;32.02
57900;BME280;60605;53.716;19.940;2023-06-26T12:25:08;100093.88;;;32.58;31.96
57900;BME280;60605;53.716;19.940;2023-06-26T12:30:10;100086.93;;;32.65;30.93
57900;BME280;60605;53.716;19.940;2023-06-26T12:35:12;100079.95;;;32.60;31.04
57900;BME280;60605;53.716;19.940;2023-06-26T12:40:19;100075.86;;;32.44;29.94
57900;BME280;60605;53.716;19.940;2023-06-26T12:45:23;100076.36;;;32.27;31.01
57900;BME280;60605;53.716;19.940;2023-06-26T12:50:38;100070.07;;;32.13;30.91
57900;BME280;60605;53.716;19.940;2023-06-26T12:55:41;100064.56;;;31.90;31.17
57900;BME280;60605;53.716;19.940;2023-06-26T13:00:44;100065.42;;;31.52;30.44
57900;BME280;60605;53.716;19.940;2023-06-26T13:05:46;100059.80;;;31.18;31.43
57900;BME280;60605;53.716;19.940;2023-06-26T13:10:49;100052.18;;;31.03;30.60
57900;BME280;60605;53.716;19.940;2023-06-26T13:15:51;100047.75;;;31.08;29.68
57900;BME280;60605;53.716;19.940;2023-06-26T13:20:53;100041.90;;;31.20;32.09
57900;BME280;60605;53.716;19.940;2023-06-26T13:25:55;100034.05;;;31.31;33.00
57900;BME280;60605;53.716;19.940;2023-06-26T13:30:57;100023.50;;;31.37;32.13
57900;BME280;60605;53.716;19.940;2023-06-26T13:35:59;100023.91;;;31.36;31.63
57900;BME280;60605;53.716;19.940;2023-06-26T13:41:01;100014.71;;;31.23;31.49
57900;BME280;60605;53.716;19.940;2023-06-26T13:46:04;100020.29;;;30.92;32.39
57900;BME280;60605;53.716;19.940;2023-06-26T13:51:07;100011.99;;;30.79;32.95
57900;BME280;60605;53.716;19.940;2023-06-26T13:56:09;100006.11;;;30.66;33.23
57900;BME280;60605;53.716;19.940;2023-06-26T14:01:11;100009.38;;;30.28;32.57
57900;BME280;60605;53.716;19.940;2023-06-26T14:06:15;100004.31;;;29.74;33.07
57900;BME280;60605;53.716;19.940;2023-06-26T14:11:19;100000.58;;;29.37;33.11
57900;BME280;60605;53.716;19.940;2023-06-26T14:16:21;99987.74;;;29.30;32.78
57900;BME280;60605;53.716;19.940;2023-06-26T14:21:24;99978.02;;;29.46;33.75
57900;BME280;60605;53.716;19.940;2023-06-26T14:26:26;99970.89;;;29.56;33.94
57900;BME280;60605;53.716;19.940;2023-06-26T14:31:30;99968.05;;;29.61;33.30
57900;BME280;60605;53.716;19.940;2023-06-26T14:36:33;99961.58;;;29.62;33.07
57900;BME280;60605;53.716;19.940;2023-06-26T14:41:35;99953.14;;;29.65;32.23
57900;BME280;60605;53.716;19.940;2023-06-26T14:46:38;99939.98;;;29.64;31.14
57900;BME280;60605;53.716;19.940;2023-06-26T14:51:40;99929.56;;;29.56;31.89
57900;BME280;60605;53.716;19.940;2023-06-26T14:56:42;99930.83;;;29.47;32.56
57900;BME280;60605;53.716;19.940;2023-06-26T15:01:46;99929.97;;;29.33;32.71
57900;BME280;60605;53.716;19.940;2023-06-26T15:06:48;99922.14;;;29.30;33.02
57900;BME280;60605;53.716;19.940;2023-06-26T15:11:50;99922.53;;;29.26;33.23
57900;BME280;60605;53.716;19.940;2023-06-26T15:16:53;99922.07;;;29.17;33.20
57900;BME280;60605;53.716;19.940;2023-06-26T15:21:55;99917.23;;;29.12;33.19
57900;BME280;60605;53.716;19.940;2023-06-26T15:26:57;99922.45;;;29.02;33.42
57900;BME280;60605;53.716;19.940;2023-06-26T15:31:59;99918.38;;;28.91;33.64
57900;BME280;60605;53.716;19.940;2023-06-26T15:37:02;99917.90;;;28.86;33.59
57900;BME280;60605;53.716;19.940;2023-06-26T15:42:05;99914.66;;;28.76;33.62
57900;BME280;60605;53.716;19.940;2023-06-26T15:47:07;99908.63;;;28.61;33.53
57900;BME280;60605;53.716;19.940;2023-06-26T15:52:10;99902.72;;;28.42;33.54
57900;BME280;60605;53.716;19.940;2023-06-26T15:57:12;99893.27;;;28.24;33.51
57900;BME280;60605;53.716;19.940;2023-06-26T16:02:14;99883.39;;;28.10;33.71
57900;BME280;60605;53.716;19.940;2023-06-26T16:07:16;99879.80;;;27.98;34.18
57900;BME280;60605;53.716;19.940;2023-06-26T16:12:18;99880.00;;;27.86;34.91
57900;BME280;60605;53.716;19.940;2023-06-26T16:17:20;99878.10;;;27.77;34.90
57900;BME280;60605;53.716;19.940;2023-06-26T16:22:22;99876.17;;;27.71;34.97
57900;BME280;60605;53.716;19.940;2023-06-26T16:27:23;99878.35;;;27.62;34.39
57900;BME280;60605;53.716;19.940;2023-06-26T16:32:25;99874.36;;;27.48;34.11
57900;BME280;60605;53.716;19.940;2023-06-26T16:37:28;99876.65;;;27.37;34.99
57900;BME280;60605;53.716;19.940;2023-06-26T16:42:29;99871.02;;;27.29;34.85
57900;BME280;60605;53.716;19.940;2023-06-26T16:47:31;99867.00;;;27.22;35.25
57900;BME280;60605;53.716;19.940;2023-06-26T16:52:38;99869.39;;;27.15;35.86
57900;BME280;60605;53.716;19.940;2023-06-26T16:57:42;99872.38;;;27.06;35.50
57900;BME280;60605;53.716;19.940;2023-06-26T17:02:45;99868.20;;;26.93;35.33
57900;BME280;60605;53.716;19.940;2023-06-26T17:07:48;99862.86;;;26.80;35.23
57900;BME280;60605;53.716;19.940;2023-06-26T17:12:49;99859.89;;;26.69;35.52
57900;BME280;60605;53.716;19.940;2023-06-26T17:17:52;99859.13;;;26.55;35.55
57900;BME280;60605;53.716;19.940;2023-06-26T17:22:54;99862.48;;;26.40;35.81
57900;BME280;60605;53.716;19.940;2023-06-26T17:27:56;99863.34;;;26.21;36.11
57900;BME280;60605;53.716;19.940;2023-06-26T17:32:58;99859.83;;;26.02;36.33
57900;BME280;60605;53.716;19.940;2023-06-26T17:38:01;99859.27;;;25.82;36.83
57900;BME280;60605;53.716;19.940;2023-06-26T17:43:03;99855.30;;;25.65;37.61
57900;BME280;60605;53.716;19.940;2023-06-26T17:48:05;99857.25;;;25.41;37.96
57900;BME280;60605;53.716;19.940;2023-06-26T17:53:07;99856.17;;;25.11;38.30
57900;BME280;60605;53.716;19.940;2023-06-26T17:58:09;99854.39;;;24.82;39.06
57900;BME280;60605;53.716;19.940;2023-06-26T18:03:11;99848.94;;;24.53;39.71
57900;BME280;60605;53.716;19.940;2023-06-26T18:08:13;99853.45;;;24.25;40.45
57900;BME280;60605;53.716;19.940;2023-06-26T18:13:15;99855.94;;;24.00;41.35
57900;BME280;60605;53.716;19.940;2023-06-26T18:18:17;99856.82;;;23.78;41.96
57900;BME280;60605;53.716;19.940;2023-06-26T18:23:19;99855.11;;;23.59;42.65
57900;BME280;60605;53.716;19.940;2023-06-26T18:28:21;99854.80;;;23.39;43.37
57900;BME280;60605;53.716;19.940;2023-06-26T18:33:24;99853.32;;;23.20;43.97
57900;BME280;60605;53.716;19.940;2023-06-26T18:38:27;99852.27;;;23.03;44.61
57900;BME280;60605;53.716;19.940;2023-06-26T18:43:28;99844.77;;;22.86;45.03
57900;BME280;60605;53.716;19.940;2023-06-26T18:48:30;99842.04;;;22.74;45.78
57900;BME280;60605;53.716;19.940;2023-06-26T18:53:32;99843.73;;;22.61;46.32
57900;BME280;60605;53.716;19.940;2023-06-26T18:58:35;99843.69;;;22.46;47.22
57900;BME280;60605;53.716;19.940;2023-06-26T19:03:38;99838.08;;;22.27;47.79
57900;BME280;60605;53.716;19.940;2023-06-26T19:08:40;99837.92;;;22.09;48.48
57900;BME280;60605;53.716;19.940;2023-06-26T19:13:43;99838.16;;;21.90;48.92
57900;BME280;60605;53.716;19.940;2023-06-26T19:18:49;99833.59;;;21.77;49.24
57900;BME280;60605;53.716;19.940;2023-06-26T19:23:53;99830.59;;;21.72;49.26
57900;BME280;60605;53.716;19.940;2023-06-26T19:28:56;99828.98;;;21.65;49.78
57900;BME280;60605;53.716;19.940;2023-06-26T19:33:59;99821.14;;;21.55;51.09
57900;BME280;60605;53.716;19.940;2023-06-26T19:39:02;99813.42;;;21.45;52.28
57900;BME280;60605;53.716;19.940;2023-06-26T19:44:05;99811.02;;;21.37;52.63
57900;BME280;60605;53.716;19.940;2023-06-26T19:49:09;99802.70;;;21.29;52.44
57900;BME280;60605;53.716;19.940;2023-06-26T19:54:11;99798.75;;;21.24;52.20
57900;BME280;60605;53.716;19.940;2023-06-26T19:59:14;99795.98;;;21.19;52.43
57900;BME280;60605;53.716;19.940;2023-06-26T20:04:16;99793.68;;;21.10;52.69
57900;BME280;60605;53.716;19.940;2023-06-26T20:09:18;99795.30;;;21.00;53.01
57900;BME280;60605;53.716;19.940;2023-06-26T20:14:20;99784.67;;;20.87;53.71
57900;BME280;60605;53.716;19.940;2023-06-26T20:19:23;99776.81;;;20.72;54.46
57900;BME280;60605;53.716;19.940;2023-06-26T20:24:25;99768.34;;;20.61;55.28
57900;BME280;60605;53.716;19.940;2023-06-26T20:29:28;99765.71;;;20.54;56.06
57900;BME280;60605;53.716;19.940;2023-06-26T20:34:31;99764.61;;;20.48;56.47
57900;BME280;60605;53.716;19.940;2023-06-26T20:39:34;99766.83;;;20.44;56.81
57900;BME280;60605;53.716;19.940;2023-06-26T20:44:36;99776.64;;;20.40;56.42
57900;BME280;60605;53.716;19.940;2023-06-26T20:49:40;99775.32;;;20.38;55.22
57900;BME280;60605;53.716;19.940;2023-06-26T20:54:43;99770.10;;;20.34;54.92
57900;BME280;60605;53.716;19.940;2023-06-26T20:59:50;99762.75;;;20.29;55.06
57900;BME280;60605;53.716;19.940;2023-06-26T21:04:52;99764.36;;;20.21;55.65
57900;BME280;60605;53.716;19.940;2023-06-26T21:09:54;99756.34;;;20.12;55.96
57900;BME280;60605;53.716;19.940;2023-06-26T21:14:58;99747.00;;;20.05;56.15
57900;BME280;60605;53.716;19.940;2023-06-26T21:20:00;99736.23;;;19.98;56.61
57900;BME280;60605;53.716;19.940;2023-06-26T21:25:02;99730.71;;;19.91;56.94
57900;BME280;60605;53.716;19.940;2023-06-26T21:30:08;99727.23;;;19.84;57.43
57900;BME280;60605;53.716;19.940;2023-06-26T21:35:10;99733.39;;;19.79;57.39
57900;BME280;60605;53.716;19.940;2023-06-26T21:40:13;99735.52;;;19.75;57.33
57900;BME280;60605;53.716;19.940;2023-06-26T21:45:15;99732.11;;;19.68;57.39
57900;BME280;60605;53.716;19.940;2023-06-26T21:50:17;99725.63;;;19.63;57.82
57900;BME280;60605;53.716;19.940;2023-06-26T21:55:19;99728.91;;;19.58;57.77
57900;BME280;60605;53.716;19.940;2023-06-26T22:00:21;99727.89;;;19.52;57.95
57900;BME280;60605;53.716;19.940;2023-06-26T22:05:23;99725.11;;;19.44;58.37
57900;BME280;60605;53.716;19.940;2023-06-26T22:10:26;99722.95;;;19.39;59.03
57900;BME280;60605;53.716;19.940;2023-06-26T22:15:28;99720.78;;;19.36;59.26
57900;BME280;60605;53.716;19.940;2023-06-26T22:20:30;99719.09;;;19.33;59.47
57900;BME280;60605;53.716;19.940;2023-06-26T22:25:32;99714.32;;;19.30;59.64
57900;BME280;60605;53.716;19.940;2023-06-26T22:30:34;99708.84;;;19.26;59.94
57900;BME280;60605;53.716;19.940;2023-06-26T22:35:36;99706.96;;;19.21;60.37
57900;BME280;60605;53.716;19.940;2023-06-26T22:40:38;99702.48;;;19.16;60.75
57900;BME280;60605;53.716;19.940;2023-06-26T22:45:41;99703.63;;;19.11;61.25
57900;BME280;60605;53.716;19.940;2023-06-26T22:50:43;99697.84;;;19.07;61.65
57900;BME280;60605;53.716;19.940;2023-06-26T22:55:45;99694.48;;;19.03;61.81
57900;BME280;60605;53.716;19.940;2023-06-26T23:00:47;99690.44;;;18.98;62.23
57900;BME280;60605;53.716;19.940;2023-06-26T23:05:49;99680.80;;;18.93;62.29
57900;BME280;60605;53.716;19.940;2023-06-26T23:10:58;99674.54;;;18.88;62.72
57900;BME280;60605;53.716;19.940;2023-06-26T23:16:00;99678.71;;;18.83;63.19
57900;BME280;60605;53.716;19.940;2023-06-26T23:21:04;99676.29;;;18.79;63.30
57900;BME280;60605;53.716;19.940;2023-06-26T23:26:06;99668.71;;;18.75;63.15
57900;BME280;60605;53.716;19.940;2023-06-26T23:31:08;99662.23;;;18.71;63.34
57900;BME280;60605;53.716;19.940;2023-06-26T23:36:11;99660.48;;;18.68;63.58
57900;BME280;60605;53.716;19.940;2023-06-26T23:41:14;99658.15;;;18.63;64.14
57900;BME280;60605;53.716;19.940;2023-06-26T23:46:16;99718.96;;;18.59;65.12
57900;BME280;60605;53.716;19.940;2023-06-26T23:51:18;99714.98;;;18.61;65.74
57900;BME280;60605;53.716;19.940;2023-06-26T23:56:20;99726.20;;;18.84;64.93
